sensor_id;sensor_type;location;lat;lon;timestamp;P1;durP1;ratioP1;P2;durP2;ratioP2
76495;SDS011;65329;52.544;4.662;2023-07-24T00:01:24;9.40;;;2.63;;
76495;SDS011;65329;52.544;4.662;2023-07-24T00:03:51;7.63;;;3.03;;
76495;SDS011;65329;52.544;4.662;2023-07-24T00:06:21;7.45;;;2.72;;
76495;SDS011;65329;52.544;4.662;2023-07-24T00:08:48;5.95;;;2.47;;
76495;SDS011;65329;52.544;4.662;2023-07-24T00:11:15;5.63;;;3.38;;
76495;SDS011;65329;52.544;4.662;2023-07-24T00:13:42;9.85;;;3.28;;
76495;SDS011;65329;52.544;4.662;2023-07-24T00:16:09;5.90;;;2.67;;
76495;SDS011;65329;52.544;4.662;2023-07-24T00:18:36;7.68;;;2.78;;
76495;SDS011;65329;52.544;4.662;2023-07-24T00:21:03;8.68;;;2.70;;
76495;SDS011;65329;52.544;4.662;2023-07-24T00:23:30;7.40;;;2.92;;
76495;SDS011;65329;52.544;4.662;2023-07-24T00:25:57;9.70;;;3.13;;
76495;SDS011;65329;52.544;4.662;2023-07-24T00:28:24;7.65;;;2.13;;
76495;SDS011;65329;52.544;4.662;2023-07-24T00:30:51;14.18;;;2.97;;
76495;SDS011;65329;52.544;4.662;2023-07-24T00:33:19;6.50;;;2.40;;
76495;SDS011;65329;52.544;4.662;2023-07-24T00:35:46;8.88;;;2.60;;
76495;SDS011;65329;52.544;4.662;2023-07-24T00:38:13;4.68;;;2.00;;
76495;SDS011;65329;52.544;4.662;2023-07-24T00:40:40;7.45;;;2.53;;
76495;SDS011;65329;52.544;4.662;2023-07-24T00:43:07;10.35;;;2.67;;
76495;SDS011;65329;52.544;4.662;2023-07-24T00:45:34;7.68;;;2.55;;
76495;SDS011;65329;52.544;4.662;2023-07-24T00:48:02;7.93;;;2.15;;
76495;SDS011;65329;52.544;4.662;2023-07-24T00:50:29;8.77;;;2.35;;
76495;SDS011;65329;52.544;4.662;2023-07-24T00:52:58;5.13;;;2.10;;
76495;SDS011;65329;52.544;4.662;2023-07-24T00:55:25;8.23;;;2.22;;
76495;SDS011;65329;52.544;4.662;2023-07-24T00:57:52;8.35;;;2.55;;
76495;SDS011;65329;52.544;4.662;2023-07-24T01:00:20;7.88;;;2.55;;
76495;SDS011;65329;52.544;4.662;2023-07-24T01:02:47;13.27;;;2.83;;
76495;SDS011;65329;52.544;4.662;2023-07-24T01:05:15;9.43;;;2.22;;
76495;SDS011;65329;52.544;4.662;2023-07-24T01:07:43;7.70;;;2.20;;
76495;SDS011;65329;52.544;4.662;2023-07-24T01:10:10;11.63;;;2.60;;
76495;SDS011;65329;52.544;4.662;2023-07-24T01:15:30;6.28;;;2.40;;
76495;SDS011;65329;52.544;4.662;2023-07-24T01:18:00;6.53;;;2.22;;
76495;SDS011;65329;52.544;4.662;2023-07-24T01:20:38;5.13;;;1.90;;
76495;SDS011;65329;52.544;4.662;2023-07-24T01:23:23;8.73;;;2.22;;
76495;SDS011;65329;52.544;4.662;2023-07-24T01:26:14;7.60;;;2.20;;
76495;SDS011;65329;52.544;4.662;2023-07-24T01:28:42;14.13;;;2.72;;
76495;SDS011;65329;52.544;4.662;2023-07-24T01:31:10;12.88;;;3.65;;
76495;SDS011;65329;52.544;4.662;2023-07-24T01:33:37;5.35;;;2.13;;
76495;SDS011;65329;52.544;4.662;2023-07-24T01:36:04;7.22;;;2.55;;
76495;SDS011;65329;52.544;4.662;2023-07-24T01:38:34;9.32;;;3.17;;
76495;SDS011;65329;52.544;4.662;2023-07-24T01:41:02;8.77;;;2.80;;
76495;SDS011;65329;52.544;4.662;2023-07-24T01:43:30;5.72;;;2.42;;
76495;SDS011;65329;52.544;4.662;2023-07-24T01:45:58;8.70;;;2.35;;
76495;SDS011;65329;52.544;4.662;2023-07-24T01:48:25;7.43;;;2.08;;
76495;SDS011;65329;52.544;4.662;2023-07-24T01:50:53;10.30;;;2.72;;
76495;SDS011;65329;52.544;4.662;2023-07-24T01:53:20;5.55;;;2.38;;
76495;SDS011;65329;52.544;4.662;2023-07-24T01:55:47;4.70;;;1.90;;
76495;SDS011;65329;52.544;4.662;2023-07-24T01:58:14;7.72;;;2.28;;
76495;SDS011;65329;52.544;4.662;2023-07-24T02:00:41;7.38;;;2.83;;
76495;SDS011;65329;52.544;4.662;2023-07-24T02:03:08;7.63;;;2.10;;
76495;SDS011;65329;52.544;4.662;2023-07-24T02:05:36;9.55;;;2.65;;
76495;SDS011;65329;52.544;4.662;2023-07-24T02:08:03;7.28;;;2.10;;
76495;SDS011;65329;52.544;4.662;2023-07-24T02:10:30;7.68;;;2.03;;
76495;SDS011;65329;52.544;4.662;2023-07-24T02:12:58;7.40;;;2.45;;
76495;SDS011;65329;52.544;4.662;2023-07-24T02:15:26;9.93;;;2.30;;
76495;SDS011;65329;52.544;4.662;2023-07-24T02:17:54;5.68;;;2.03;;
76495;SDS011;65329;52.544;4.662;2023-07-24T02:20:21;9.95;;;2.40;;
76495;SDS011;65329;52.544;4.662;2023-07-24T02:22:48;6.95;;;3.30;;
76495;SDS011;65329;52.544;4.662;2023-07-24T02:25:15;13.10;;;2.60;;
76495;SDS011;65329;52.544;4.662;2023-07-24T02:27:42;9.88;;;2.72;;
76495;SDS011;65329;52.544;4.662;2023-07-24T02:30:09;10.18;;;2.55;;
76495;SDS011;65329;52.544;4.662;2023-07-24T02:32:37;5.95;;;2.38;;
76495;SDS011;65329;52.544;4.662;2023-07-24T02:35:04;5.47;;;2.58;;
76495;SDS011;65329;52.544;4.662;2023-07-24T02:37:31;8.30;;;3.75;;
76495;SDS011;65329;52.544;4.662;2023-07-24T02:39:58;12.05;;;3.13;;
76495;SDS011;65329;52.544;4.662;2023-07-24T02:42:26;11.82;;;3.40;;
76495;SDS011;65329;52.544;4.662;2023-07-24T02:44:53;10.50;;;3.65;;
76495;SDS011;65329;52.544;4.662;2023-07-24T02:47:21;8.30;;;3.28;;
76495;SDS011;65329;52.544;4.662;2023-07-24T02:49:48;9.80;;;2.58;;
76495;SDS011;65329;52.544;4.662;2023-07-24T02:52:15;10.65;;;3.55;;
76495;SDS011;65329;52.544;4.662;2023-07-24T02:54:43;5.70;;;2.85;;
76495;SDS011;65329;52.544;4.662;2023-07-24T02:57:10;11.40;;;3.35;;
76495;SDS011;65329;52.544;4.662;2023-07-24T02:59:37;12.45;;;3.28;;
76495;SDS011;65329;52.544;4.662;2023-07-24T03:02:04;11.15;;;3.47;;
76495;SDS011;65329;52.544;4.662;2023-07-24T03:04:31;7.82;;;3.33;;
76495;SDS011;65329;52.544;4.662;2023-07-24T03:06:58;9.07;;;3.53;;
76495;SDS011;65329;52.544;4.662;2023-07-24T03:09:25;8.02;;;3.00;;
76495;SDS011;65329;52.544;4.662;2023-07-24T03:11:53;6.68;;;2.72;;
76495;SDS011;65329;52.544;4.662;2023-07-24T03:14:20;7.10;;;2.80;;
76495;SDS011;65329;52.544;4.662;2023-07-24T03:16:47;10.20;;;3.70;;
76495;SDS011;65329;52.544;4.662;2023-07-24T03:19:15;8.27;;;3.70;;
76495;SDS011;65329;52.544;4.662;2023-07-24T03:21:44;6.22;;;2.97;;
76495;SDS011;65329;52.544;4.662;2023-07-24T03:24:11;9.25;;;2.83;;
76495;SDS011;65329;52.544;4.662;2023-07-24T03:26:38;16.13;;;4.10;;
76495;SDS011;65329;52.544;4.662;2023-07-24T03:29:05;9.27;;;3.42;;
76495;SDS011;65329;52.544;4.662;2023-07-24T03:31:32;12.05;;;3.90;;
76495;SDS011;65329;52.544;4.662;2023-07-24T03:34:00;7.65;;;3.20;;
76495;SDS011;65329;52.544;4.662;2023-07-24T03:36:26;10.52;;;3.50;;
76495;SDS011;65329;52.544;4.662;2023-07-24T03:38:54;10.98;;;3.80;;
76495;SDS011;65329;52.544;4.662;2023-07-24T03:41:21;8.63;;;3.95;;
76495;SDS011;65329;52.544;4.662;2023-07-24T03:43:48;6.72;;;3.55;;
76495;SDS011;65329;52.544;4.662;2023-07-24T03:46:17;7.80;;;3.55;;
76495;SDS011;65329;52.544;4.662;2023-07-24T03:48:44;8.43;;;3.75;;
76495;SDS011;65329;52.544;4.662;2023-07-24T03:51:11;9.00;;;3.67;;
76495;SDS011;65329;52.544;4.662;2023-07-24T03:53:38;9.52;;;4.03;;
76495;SDS011;65329;52.544;4.662;2023-07-24T03:56:05;10.02;;;3.90;;
76495;SDS011;65329;52.544;4.662;2023-07-24T03:58:32;8.20;;;3.83;;
76495;SDS011;65329;52.544;4.662;2023-07-24T04:00:59;12.45;;;4.47;;
76495;SDS011;65329;52.544;4.662;2023-07-24T04:03:27;8.15;;;3.70;;
76495;SDS011;65329;52.544;4.662;2023-07-24T04:05:54;10.20;;;3.65;;
76495;SDS011;65329;52.544;4.662;2023-07-24T04:08:21;11.27;;;3.42;;
76495;SDS011;65329;52.544;4.662;2023-07-24T04:10:48;9.48;;;3.35;;
76495;SDS011;65329;52.544;4.662;2023-07-24T04:13:15;13.10;;;4.38;;
76495;SDS011;65329;52.544;4.662;2023-07-24T04:15:42;11.38;;;3.53;;
76495;SDS011;65329;52.544;4.662;2023-07-24T04:18:11;8.98;;;4.35;;
76495;SDS011;65329;52.544;4.662;2023-07-24T04:20:38;10.00;;;3.92;;
76495;SDS011;65329;52.544;4.662;2023-07-24T04:23:05;11.18;;;3.75;;
76495;SDS011;65329;52.544;4.662;2023-07-24T04:25:32;9.05;;;3.60;;
76495;SDS011;65329;52.544;4.662;2023-07-24T04:27:59;10.15;;;3.88;;
76495;SDS011;65329;52.544;4.662;2023-07-24T04:30:27;7.70;;;3.38;;
76495;SDS011;65329;52.544;4.662;2023-07-24T04:32:53;11.65;;;3.80;;
76495;SDS011;65329;52.544;4.662;2023-07-24T04:35:21;9.85;;;3.53;;
76495;SDS011;65329;52.544;4.662;2023-07-24T04:37:48;10.20;;;4.75;;
76495;SDS011;65329;52.544;4.662;2023-07-24T04:40:14;8.40;;;3.85;;
76495;SDS011;65329;52.544;4.662;2023-07-24T04:42:41;10.07;;;3.63;;
76495;SDS011;65329;52.544;4.662;2023-07-24T04:45:09;13.52;;;3.92;;
76495;SDS011;65329;52.544;4.662;2023-07-24T04:47:36;8.52;;;3.55;;
76495;SDS011;65329;52.544;4.662;2023-07-24T04:50:04;16.23;;;4.35;;
76495;SDS011;65329;52.544;4.662;2023-07-24T04:52:32;11.55;;;3.33;;
76495;SDS011;65329;52.544;4.662;2023-07-24T04:54:59;7.55;;;3.22;;
76495;SDS011;65329;52.544;4.662;2023-07-24T04:57:26;10.38;;;3.47;;
76495;SDS011;65329;52.544;4.662;2023-07-24T04:59:53;10.82;;;3.38;;
76495;SDS011;65329;52.544;4.662;2023-07-24T05:02:20;9.38;;;3.47;;
76495;SDS011;65329;52.544;4.662;2023-07-24T05:04:49;9.95;;;2.95;;
76495;SDS011;65329;52.544;4.662;2023-07-24T05:07:16;7.50;;;4.07;;
76495;SDS011;65329;52.544;4.662;2023-07-24T05:09:43;13.45;;;3.88;;
76495;SDS011;65329;52.544;4.662;2023-07-24T05:12:10;12.55;;;3.63;;
76495;SDS011;65329;52.544;4.662;2023-07-24T05:14:37;8.90;;;3.65;;
76495;SDS011;65329;52.544;4.662;2023-07-24T05:17:05;8.27;;;3.58;;
76495;SDS011;65329;52.544;4.662;2023-07-24T05:19:32;6.90;;;3.28;;
76495;SDS011;65329;52.544;4.662;2023-07-24T05:21:59;14.75;;;4.53;;
76495;SDS011;65329;52.544;4.662;2023-07-24T05:24:26;6.78;;;3.17;;
76495;SDS011;65329;52.544;4.662;2023-07-24T05:26:53;8.77;;;3.85;;
76495;SDS011;65329;52.544;4.662;2023-07-24T05:29:19;11.23;;;3.78;;
76495;SDS011;65329;52.544;4.662;2023-07-24T05:31:46;11.65;;;4.10;;
76495;SDS011;65329;52.544;4.662;2023-07-24T05:34:14;15.43;;;4.40;;
76495;SDS011;65329;52.544;4.662;2023-07-24T05:36:41;5.88;;;3.30;;
76495;SDS011;65329;52.544;4.662;2023-07-24T05:39:08;11.13;;;3.45;;
76495;SDS011;65329;52.544;4.662;2023-07-24T05:41:35;6.63;;;3.53;;
76495;SDS011;65329;52.544;4.662;2023-07-24T05:44:06;8.40;;;3.92;;
76495;SDS011;65329;52.544;4.662;2023-07-24T05:46:33;10.35;;;4.20;;
76495;SDS011;65329;52.544;4.662;2023-07-24T05:49:00;9.38;;;4.45;;
76495;SDS011;65329;52.544;4.662;2023-07-24T05:51:28;7.90;;;3.60;;
76495;SDS011;65329;52.544;4.662;2023-07-24T05:53:55;9.45;;;4.43;;
76495;SDS011;65329;52.544;4.662;2023-07-24T05:56:22;13.30;;;4.30;;
76495;SDS011;65329;52.544;4.662;2023-07-24T05:58:49;10.77;;;3.72;;
76495;SDS011;65329;52.544;4.662;2023-07-24T06:01:16;8.60;;;4.28;;
76495;SDS011;65329;52.544;4.662;2023-07-24T06:03:44;10.07;;;4.00;;
76495;SDS011;65329;52.544;4.662;2023-07-24T06:06:11;13.00;;;3.85;;
76495;SDS011;65329;52.544;4.662;2023-07-24T06:08:41;9.50;;;3.95;;
76495;SDS011;65329;52.544;4.662;2023-07-24T06:11:08;9.88;;;4.50;;
76495;SDS011;65329;52.544;4.662;2023-07-24T06:13:35;11.23;;;4.57;;
76495;SDS011;65329;52.544;4.662;2023-07-24T06:16:02;8.52;;;4.15;;
76495;SDS011;65329;52.544;4.662;2023-07-24T06:18:29;9.80;;;4.60;;
76495;SDS011;65329;52.544;4.662;2023-07-24T06:20:56;7.03;;;4.07;;
76495;SDS011;65329;52.544;4.662;2023-07-24T06:23:23;10.05;;;3.85;;
76495;SDS011;65329;52.544;4.662;2023-07-24T06:25:50;9.57;;;4.20;;
76495;SDS011;65329;52.544;4.662;2023-07-24T06:28:18;10.38;;;4.20;;
76495;SDS011;65329;52.544;4.662;2023-07-24T06:30:45;10.75;;;3.75;;
76495;SDS011;65329;52.544;4.662;2023-07-24T06:33:13;7.93;;;3.33;;
76495;SDS011;65329;52.544;4.662;2023-07-24T06:35:40;11.00;;;4.15;;
76495;SDS011;65329;52.544;4.662;2023-07-24T06:38:07;6.57;;;3.80;;
76495;SDS011;65329;52.544;4.662;2023-07-24T06:40:35;8.98;;;4.00;;
76495;SDS011;65329;52.544;4.662;2023-07-24T06:43:02;10.20;;;3.83;;
76495;SDS011;65329;52.544;4.662;2023-07-24T06:45:28;9.35;;;4.85;;
76495;SDS011;65329;52.544;4.662;2023-07-24T06:47:56;10.25;;;4.18;;
76495;SDS011;65329;52.544;4.662;2023-07-24T06:50:23;11.25;;;4.68;;
76495;SDS011;65329;52.544;4.662;2023-07-24T06:52:50;10.07;;;4.50;;
76495;SDS011;65329;52.544;4.662;2023-07-24T06:55:18;6.53;;;4.05;;
76495;SDS011;65329;52.544;4.662;2023-07-24T06:57:45;10.35;;;4.50;;
76495;SDS011;65329;52.544;4.662;2023-07-24T07:00:13;9.82;;;4.13;;
76495;SDS011;65329;52.544;4.662;2023-07-24T07:02:40;8.77;;;3.60;;
76495;SDS011;65329;52.544;4.662;2023-07-24T07:05:07;8.63;;;3.80;;
76495;SDS011;65329;52.544;4.662;2023-07-24T07:07:35;10.50;;;4.68;;
76495;SDS011;65329;52.544;4.662;2023-07-24T07:10:02;9.68;;;4.40;;
76495;SDS011;65329;52.544;4.662;2023-07-24T07:12:29;12.93;;;4.43;;
76495;SDS011;65329;52.544;4.662;2023-07-24T07:14:56;8.60;;;4.40;;
76495;SDS011;65329;52.544;4.662;2023-07-24T07:17:23;8.05;;;3.92;;
76495;SDS011;65329;52.544;4.662;2023-07-24T07:19:50;11.88;;;4.40;;
76495;SDS011;65329;52.544;4.662;2023-07-24T07:22:17;10.43;;;4.70;;
76495;SDS011;65329;52.544;4.662;2023-07-24T07:24:44;11.25;;;4.47;;
76495;SDS011;65329;52.544;4.662;2023-07-24T07:27:13;12.10;;;5.00;;
76495;SDS011;65329;52.544;4.662;2023-07-24T07:29:43;7.32;;;4.93;;
76495;SDS011;65329;52.544;4.662;2023-07-24T07:32:10;10.63;;;4.55;;
76495;SDS011;65329;52.544;4.662;2023-07-24T07:34:38;9.00;;;5.05;;
76495;SDS011;65329;52.544;4.662;2023-07-24T07:37:05;10.07;;;4.60;;
76495;SDS011;65329;52.544;4.662;2023-07-24T07:39:32;8.27;;;5.07;;
76495;SDS011;65329;52.544;4.662;2023-07-24T07:42:00;8.75;;;4.35;;
76495;SDS011;65329;52.544;4.662;2023-07-24T07:47:11;11.00;;;4.60;;
76495;SDS011;65329;52.544;4.662;2023-07-24T07:49:38;6.15;;;4.53;;
76495;SDS011;65329;52.544;4.662;2023-07-24T07:52:06;7.00;;;3.88;;
76495;SDS011;65329;52.544;4.662;2023-07-24T07:54:33;7.78;;;4.20;;
76495;SDS011;65329;52.544;4.662;2023-07-24T07:57:00;7.28;;;3.95;;
76495;SDS011;65329;52.544;4.662;2023-07-24T07:59:30;5.68;;;4.05;;
76495;SDS011;65329;52.544;4.662;2023-07-24T08:01:57;6.60;;;4.30;;
76495;SDS011;65329;52.544;4.662;2023-07-24T08:04:24;7.63;;;4.13;;
76495;SDS011;65329;52.544;4.662;2023-07-24T08:06:51;8.70;;;4.70;;
76495;SDS011;65329;52.544;4.662;2023-07-24T08:09:18;8.20;;;4.18;;
76495;SDS011;65329;52.544;4.662;2023-07-24T08:11:45;9.43;;;3.92;;
76495;SDS011;65329;52.544;4.662;2023-07-24T08:14:12;7.30;;;4.28;;
76495;SDS011;65329;52.544;4.662;2023-07-24T08:16:39;9.23;;;4.32;;
76495;SDS011;65329;52.544;4.662;2023-07-24T08:19:06;10.65;;;3.88;;
76495;SDS011;65329;52.544;4.662;2023-07-24T08:21:34;7.93;;;3.85;;
76495;SDS011;65329;52.544;4.662;2023-07-24T08:24:01;9.88;;;4.13;;
76495;SDS011;65329;52.544;4.662;2023-07-24T08:26:31;11.45;;;4.22;;
76495;SDS011;65329;52.544;4.662;2023-07-24T08:28:58;6.60;;;4.25;;
76495;SDS011;65329;52.544;4.662;2023-07-24T08:31:25;6.95;;;4.07;;
76495;SDS011;65329;52.544;4.662;2023-07-24T08:33:56;8.93;;;3.78;;
76495;SDS011;65329;52.544;4.662;2023-07-24T08:36:23;8.25;;;3.63;;
76495;SDS011;65329;52.544;4.662;2023-07-24T08:38:50;7.63;;;4.22;;
76495;SDS011;65329;52.544;4.662;2023-07-24T08:41:17;9.32;;;4.95;;
76495;SDS011;65329;52.544;4.662;2023-07-24T08:43:44;9.82;;;4.28;;
76495;SDS011;65329;52.544;4.662;2023-07-24T08:46:12;7.75;;;4.22;;
76495;SDS011;65329;52.544;4.662;2023-07-24T08:48:40;8.50;;;4.22;;
76495;SDS011;65329;52.544;4.662;2023-07-24T08:51:08;5.25;;;3.70;;
76495;SDS011;65329;52.544;4.662;2023-07-24T08:53:37;7.20;;;3.90;;
76495;SDS011;65329;52.544;4.662;2023-07-24T08:56:07;6.30;;;3.55;;
76495;SDS011;65329;52.544;4.662;2023-07-24T08:58:36;6.68;;;3.28;;
76495;SDS011;65329;52.544;4.662;2023-07-24T09:01:03;6.68;;;3.83;;
76495;SDS011;65329;52.544;4.662;2023-07-24T09:03:31;6.35;;;4.18;;
76495;SDS011;65329;52.544;4.662;2023-07-24T09:05:59;6.13;;;3.05;;
76495;SDS011;65329;52.544;4.662;2023-07-24T09:08:34;6.05;;;3.28;;
76495;SDS011;65329;52.544;4.662;2023-07-24T09:11:04;7.25;;;3.75;;
76495;SDS011;65329;52.544;4.662;2023-07-24T09:13:32;4.43;;;3.20;;
76495;SDS011;65329;52.544;4.662;2023-07-24T09:16:00;5.25;;;3.75;;
76495;SDS011;65329;52.544;4.662;2023-07-24T09:18:38;5.78;;;3.60;;
76495;SDS011;65329;52.544;4.662;2023-07-24T09:21:09;6.45;;;3.70;;
76495;SDS011;65329;52.544;4.662;2023-07-24T09:23:39;5.30;;;3.08;;
76495;SDS011;65329;52.544;4.662;2023-07-24T09:26:07;7.05;;;3.55;;
76495;SDS011;65329;52.544;4.662;2023-07-24T09:28:35;5.53;;;3.17;;
76495;SDS011;65329;52.544;4.662;2023-07-24T09:31:02;7.55;;;3.42;;
76495;SDS011;65329;52.544;4.662;2023-07-24T09:33:39;6.85;;;3.55;;
76495;SDS011;65329;52.544;4.662;2023-07-24T09:36:08;5.15;;;2.95;;
76495;SDS011;65329;52.544;4.662;2023-07-24T09:38:36;6.72;;;3.75;;
76495;SDS011;65329;52.544;4.662;2023-07-24T09:41:04;4.50;;;3.60;;
76495;SDS011;65329;52.544;4.662;2023-07-24T09:43:32;5.45;;;3.35;;
76495;SDS011;65329;52.544;4.662;2023-07-24T09:46:04;6.40;;;3.85;;
76495;SDS011;65329;52.544;4.662;2023-07-24T09:48:32;6.15;;;3.67;;
76495;SDS011;65329;52.544;4.662;2023-07-24T09:51:03;6.40;;;3.67;;
76495;SDS011;65329;52.544;4.662;2023-07-24T09:53:44;6.72;;;4.35;;
76495;SDS011;65329;52.544;4.662;2023-07-24T09:59:01;7.35;;;3.58;;
76495;SDS011;65329;52.544;4.662;2023-07-24T10:01:29;7.47;;;4.03;;
76495;SDS011;65329;52.544;4.662;2023-07-24T10:03:59;6.13;;;2.70;;
76495;SDS011;65329;52.544;4.662;2023-07-24T10:06:27;8.07;;;2.35;;
76495;SDS011;65329;52.544;4.662;2023-07-24T10:08:56;9.70;;;2.03;;
76495;SDS011;65329;52.544;4.662;2023-07-24T10:11:24;3.60;;;1.48;;
76495;SDS011;65329;52.544;4.662;2023-07-24T10:13:52;5.18;;;2.10;;
76495;SDS011;65329;52.544;4.662;2023-07-24T10:16:20;4.00;;;1.90;;
76495;SDS011;65329;52.544;4.662;2023-07-24T10:18:48;5.80;;;2.00;;
76495;SDS011;65329;52.544;4.662;2023-07-24T10:21:16;8.30;;;2.95;;
76495;SDS011;65329;52.544;4.662;2023-07-24T10:23:43;4.57;;;2.30;;
76495;SDS011;65329;52.544;4.662;2023-07-24T10:26:16;7.82;;;2.53;;
76495;SDS011;65329;52.544;4.662;2023-07-24T10:28:45;6.28;;;2.08;;
76495;SDS011;65329;52.544;4.662;2023-07-24T10:33:46;4.28;;;2.10;;
76495;SDS011;65329;52.544;4.662;2023-07-24T10:36:18;4.78;;;2.78;;
76495;SDS011;65329;52.544;4.662;2023-07-24T10:38:53;6.68;;;3.30;;
76495;SDS011;65329;52.544;4.662;2023-07-24T10:41:21;5.80;;;3.45;;
76495;SDS011;65329;52.544;4.662;2023-07-24T10:43:49;7.32;;;3.33;;
76495;SDS011;65329;52.544;4.662;2023-07-24T10:46:18;7.55;;;3.33;;
76495;SDS011;65329;52.544;4.662;2023-07-24T10:48:47;6.55;;;3.38;;
76495;SDS011;65329;52.544;4.662;2023-07-24T10:51:16;6.57;;;3.15;;
76495;SDS011;65329;52.544;4.662;2023-07-24T10:53:44;4.25;;;2.85;;
76495;SDS011;65329;52.544;4.662;2023-07-24T10:56:13;3.25;;;2.50;;
76495;SDS011;65329;52.544;4.662;2023-07-24T10:58:40;5.40;;;2.53;;
76495;SDS011;65329;52.544;4.662;2023-07-24T11:01:08;5.88;;;3.30;;
76495;SDS011;65329;52.544;4.662;2023-07-24T11:03:38;7.47;;;3.47;;
76495;SDS011;65329;52.544;4.662;2023-07-24T11:06:19;4.63;;;3.38;;
76495;SDS011;65329;52.544;4.662;2023-07-24T11:08:55;4.30;;;3.10;;
76495;SDS011;65329;52.544;4.662;2023-07-24T11:11:29;6.10;;;2.45;;
76495;SDS011;65329;52.544;4.662;2023-07-24T11:13:58;3.40;;;2.30;;
76495;SDS011;65329;52.544;4.662;2023-07-24T11:16:26;2.00;;;1.65;;
76495;SDS011;65329;52.544;4.662;2023-07-24T11:18:53;3.60;;;1.70;;
76495;SDS011;65329;52.544;4.662;2023-07-24T11:21:22;3.83;;;1.80;;
76495;SDS011;65329;52.544;4.662;2023-07-24T11:23:51;2.05;;;1.80;;
76495;SDS011;65329;52.544;4.662;2023-07-24T11:26:19;1.40;;;1.30;;
76495;SDS011;65329;52.544;4.662;2023-07-24T11:28:48;1.50;;;1.40;;
76495;SDS011;65329;52.544;4.662;2023-07-24T11:31:16;1.08;;;0.85;;
76495;SDS011;65329;52.544;4.662;2023-07-24T11:33:49;0.75;;;0.70;;
76495;SDS011;65329;52.544;4.662;2023-07-24T11:36:18;3.53;;;0.80;;
76495;SDS011;65329;52.544;4.662;2023-07-24T11:38:46;1.98;;;0.80;;
76495;SDS011;65329;52.544;4.662;2023-07-24T11:41:15;1.38;;;1.08;;
76495;SDS011;65329;52.544;4.662;2023-07-24T11:43:47;1.27;;;0.40;;
76495;SDS011;65329;52.544;4.662;2023-07-24T11:46:25;1.88;;;0.80;;
76495;SDS011;65329;52.544;4.662;2023-07-24T11:48:54;1.05;;;0.88;;
76495;SDS011;65329;52.544;4.662;2023-07-24T11:51:25;1.70;;;0.90;;
76495;SDS011;65329;52.544;4.662;2023-07-24T11:54:03;1.30;;;0.60;;
76495;SDS011;65329;52.544;4.662;2023-07-24T11:56:34;5.18;;;0.90;;
76495;SDS011;65329;52.544;4.662;2023-07-24T11:59:14;1.33;;;0.90;;
76495;SDS011;65329;52.544;4.662;2023-07-24T12:01:48;4.38;;;1.10;;
76495;SDS011;65329;52.544;4.662;2023-07-24T12:04:15;2.83;;;1.20;;
76495;SDS011;65329;52.544;4.662;2023-07-24T12:06:43;4.20;;;1.45;;
76495;SDS011;65329;52.544;4.662;2023-07-24T12:09:10;5.05;;;1.45;;
76495;SDS011;65329;52.544;4.662;2023-07-24T12:11:39;6.43;;;1.58;;
76495;SDS011;65329;52.544;4.662;2023-07-24T12:14:11;3.70;;;1.00;;
76495;SDS011;65329;52.544;4.662;2023-07-24T12:16:38;5.05;;;1.75;;
76495;SDS011;65329;52.544;4.662;2023-07-24T12:19:05;5.45;;;1.27;;
76495;SDS011;65329;52.544;4.662;2023-07-24T12:21:32;3.75;;;1.35;;
76495;SDS011;65329;52.544;4.662;2023-07-24T12:24:01;3.35;;;1.20;;
76495;SDS011;65329;52.544;4.662;2023-07-24T12:26:28;3.13;;;1.30;;
76495;SDS011;65329;52.544;4.662;2023-07-24T12:28:55;3.42;;;1.25;;
76495;SDS011;65329;52.544;4.662;2023-07-24T12:31:22;5.55;;;1.30;;
76495;SDS011;65329;52.544;4.662;2023-07-24T12:33:49;5.55;;;1.50;;
76495;SDS011;65329;52.544;4.662;2023-07-24T12:36:17;3.78;;;1.10;;
76495;SDS011;65329;52.544;4.662;2023-07-24T12:38:43;9.25;;;1.58;;
76495;SDS011;65329;52.544;4.662;2023-07-24T12:41:11;8.05;;;1.35;;
76495;SDS011;65329;52.544;4.662;2023-07-24T12:43:38;3.78;;;1.10;;
76495;SDS011;65329;52.544;4.662;2023-07-24T12:46:04;4.68;;;1.20;;
76495;SDS011;65329;52.544;4.662;2023-07-24T12:48:31;11.23;;;1.30;;
76495;SDS011;65329;52.544;4.662;2023-07-24T12:50:59;6.13;;;1.30;;
76495;SDS011;65329;52.544;4.662;2023-07-24T12:53:27;2.58;;;1.20;;
76495;SDS011;65329;52.544;4.662;2023-07-24T12:56:06;4.63;;;1.23;;
76495;SDS011;65329;52.544;4.662;2023-07-24T12:58:34;3.47;;;1.17;;
76495;SDS011;65329;52.544;4.662;2023-07-24T13:01:01;3.78;;;0.80;;
76495;SDS011;65329;52.544;4.662;2023-07-24T13:03:28;3.17;;;1.10;;
76495;SDS011;65329;52.544;4.662;2023-07-24T13:05:55;2.72;;;1.00;;
76495;SDS011;65329;52.544;4.662;2023-07-24T13:08:22;4.40;;;1.50;;
76495;SDS011;65329;52.544;4.662;2023-07-24T13:10:50;4.88;;;0.93;;
76495;SDS011;65329;52.544;4.662;2023-07-24T13:13:17;4.88;;;1.48;;
76495;SDS011;65329;52.544;4.662;2023-07-24T13:15:44;3.65;;;0.80;;
76495;SDS011;65329;52.544;4.662;2023-07-24T13:18:11;5.95;;;1.52;;
76495;SDS011;65329;52.544;4.662;2023-07-24T13:20:54;4.72;;;0.95;;
76495;SDS011;65329;52.544;4.662;2023-07-24T13:23:21;6.10;;;1.20;;
76495;SDS011;65329;52.544;4.662;2023-07-24T13:25:48;2.90;;;0.80;;
76495;SDS011;65329;52.544;4.662;2023-07-24T13:28:17;4.03;;;1.02;;
76495;SDS011;65329;52.544;4.662;2023-07-24T13:30:44;6.50;;;1.20;;
76495;SDS011;65329;52.544;4.662;2023-07-24T13:33:12;4.03;;;0.90;;
76495;SDS011;65329;52.544;4.662;2023-07-24T13:35:39;3.53;;;1.00;;
76495;SDS011;65329;52.544;4.662;2023-07-24T13:38:07;7.88;;;1.40;;
76495;SDS011;65329;52.544;4.662;2023-07-24T13:40:35;3.30;;;1.38;;
76495;SDS011;65329;52.544;4.662;2023-07-24T13:43:03;4.22;;;0.80;;
76495;SDS011;65329;52.544;4.662;2023-07-24T13:45:31;2.00;;;0.68;;
76495;SDS011;65329;52.544;4.662;2023-07-24T13:47:58;2.15;;;0.85;;
76495;SDS011;65329;52.544;4.662;2023-07-24T13:50:25;4.93;;;1.27;;
76495;SDS011;65329;52.544;4.662;2023-07-24T13:52:52;1.63;;;0.60;;
76495;SDS011;65329;52.544;4.662;2023-07-24T13:55:19;3.00;;;0.70;;
76495;SDS011;65329;52.544;4.662;2023-07-24T13:57:46;3.42;;;0.60;;
76495;SDS011;65329;52.544;4.662;2023-07-24T14:00:13;1.85;;;0.55;;
76495;SDS011;65329;52.544;4.662;2023-07-24T14:02:40;4.43;;;0.70;;
76495;SDS011;65329;52.544;4.662;2023-07-24T14:05:08;1.63;;;0.77;;
76495;SDS011;65329;52.544;4.662;2023-07-24T14:07:35;3.72;;;0.43;;
76495;SDS011;65329;52.544;4.662;2023-07-24T14:10:03;2.75;;;0.50;;
76495;SDS011;65329;52.544;4.662;2023-07-24T14:12:30;0.80;;;0.40;;
76495;SDS011;65329;52.544;4.662;2023-07-24T14:14:57;3.38;;;0.50;;
76495;SDS011;65329;52.544;4.662;2023-07-24T14:17:24;1.98;;;0.20;;
76495;SDS011;65329;52.544;4.662;2023-07-24T14:19:51;3.95;;;0.68;;
76495;SDS011;65329;52.544;4.662;2023-07-24T14:22:19;1.90;;;0.80;;
76495;SDS011;65329;52.544;4.662;2023-07-24T14:24:46;0.95;;;0.50;;
76495;SDS011;65329;52.544;4.662;2023-07-24T14:27:13;0.93;;;0.75;;
76495;SDS011;65329;52.544;4.662;2023-07-24T14:29:41;3.42;;;0.70;;
76495;SDS011;65329;52.544;4.662;2023-07-24T14:32:08;2.55;;;0.73;;
76495;SDS011;65329;52.544;4.662;2023-07-24T14:34:35;2.00;;;0.50;;
76495;SDS011;65329;52.544;4.662;2023-07-24T14:37:02;3.58;;;0.95;;
76495;SDS011;65329;52.544;4.662;2023-07-24T14:39:29;3.30;;;1.23;;
76495;SDS011;65329;52.544;4.662;2023-07-24T14:41:56;3.70;;;1.13;;
76495;SDS011;65329;52.544;4.662;2023-07-24T14:44:25;3.25;;;1.02;;
76495;SDS011;65329;52.544;4.662;2023-07-24T14:46:52;2.33;;;0.75;;
76495;SDS011;65329;52.544;4.662;2023-07-24T14:49:18;2.72;;;0.85;;
76495;SDS011;65329;52.544;4.662;2023-07-24T14:51:45;2.08;;;1.00;;
76495;SDS011;65329;52.544;4.662;2023-07-24T14:54:12;2.13;;;0.90;;
76495;SDS011;65329;52.544;4.662;2023-07-24T14:56:39;4.18;;;1.15;;
76495;SDS011;65329;52.544;4.662;2023-07-24T14:59:22;3.35;;;1.15;;
76495;SDS011;65329;52.544;4.662;2023-07-24T15:01:49;2.75;;;1.10;;